sensor_id;sensor_type;location;lat;lon;timestamp;P1;durP1;ratioP1;P2;durP2;ratioP2
7767;SDS011;3928;42.626;23.382;2023-03-23T00:01:02;27.10;;;20.37;;
7767;SDS011;3928;42.626;23.382;2023-03-23T00:03:29;23.90;;;18.23;;
7767;SDS011;3928;42.626;23.382;2023-03-23T00:05:57;24.13;;;16.57;;
7767;SDS011;3928;42.626;23.382;2023-03-23T00:08:29;20.97;;;16.27;;
7767;SDS011;3928;42.626;23.382;2023-03-23T00:10:57;23.17;;;15.50;;
7767;SDS011;3928;42.626;23.382;2023-03-23T00:13:26;21.63;;;15.27;;
7767;SDS011;3928;42.626;23.382;2023-03-23T00:15:56;23.30;;;16.50;;
7767;SDS011;3928;42.626;23.382;2023-03-23T00:18:23;22.47;;;16.23;;
7767;SDS011;3928;42.626;23.382;2023-03-23T00:20:51;19.43;;;14.13;;
7767;SDS011;3928;42.626;23.382;2023-03-23T00:23:19;19.10;;;14.07;;
7767;SDS011;3928;42.626;23.382;2023-03-23T00:25:49;18.70;;;13.77;;
7767;SDS011;3928;42.626;23.382;2023-03-23T00:28:18;16.30;;;12.30;;
7767;SDS011;3928;42.626;23.382;2023-03-23T00:30:53;14.23;;;11.17;;
7767;SDS011;3928;42.626;23.382;2023-03-23T00:33:23;14.87;;;10.47;;
7767;SDS011;3928;42.626;23.382;2023-03-23T00:35:51;16.90;;;11.03;;
7767;SDS011;3928;42.626;23.382;2023-03-23T00:38:19;12.63;;;10.10;;
7767;SDS011;3928;42.626;23.382;2023-03-23T00:40:46;12.00;;;9.13;;
7767;SDS011;3928;42.626;23.382;2023-03-23T00:43:13;12.07;;;9.70;;
7767;SDS011;3928;42.626;23.382;2023-03-23T00:45:41;11.83;;;9.30;;
7767;SDS011;3928;42.626;23.382;2023-03-23T00:48:11;10.93;;;8.63;;
7767;SDS011;3928;42.626;23.382;2023-03-23T00:50:38;12.50;;;10.23;;
7767;SDS011;3928;42.626;23.382;2023-03-23T00:53:05;13.10;;;10.00;;
7767;SDS011;3928;42.626;23.382;2023-03-23T00:55:32;12.17;;;9.00;;
7767;SDS011;3928;42.626;23.382;2023-03-23T00:58:00;11.10;;;9.13;;
7767;SDS011;3928;42.626;23.382;2023-03-23T01:00:26;11.97;;;8.97;;
7767;SDS011;3928;42.626;23.382;2023-03-23T01:02:53;10.93;;;8.90;;
7767;SDS011;3928;42.626;23.382;2023-03-23T01:05:22;11.73;;;9.67;;
7767;SDS011;3928;42.626;23.382;2023-03-23T01:07:48;13.30;;;10.43;;
7767;SDS011;3928;42.626;23.382;2023-03-23T01:10:15;13.43;;;9.70;;
7767;SDS011;3928;42.626;23.382;2023-03-23T01:12:43;14.60;;;9.27;;
7767;SDS011;3928;42.626;23.382;2023-03-23T01:15:13;13.43;;;10.23;;
7767;SDS011;3928;42.626;23.382;2023-03-23T01:17:42;13.00;;;10.33;;
7767;SDS011;3928;42.626;23.382;2023-03-23T01:20:09;14.13;;;10.17;;
7767;SDS011;3928;42.626;23.382;2023-03-23T01:22:38;12.97;;;10.40;;
7767;SDS011;3928;42.626;23.382;2023-03-23T01:25:06;14.33;;;10.53;;
7767;SDS011;3928;42.626;23.382;2023-03-23T01:27:35;16.63;;;12.27;;
7767;SDS011;3928;42.626;23.382;2023-03-23T01:30:02;18.30;;;13.43;;
7767;SDS011;3928;42.626;23.382;2023-03-23T01:32:30;16.03;;;12.73;;
7767;SDS011;3928;42.626;23.382;2023-03-23T01:34:57;22.63;;;16.33;;
7767;SDS011;3928;42.626;23.382;2023-03-23T01:37:24;22.43;;;15.67;;
7767;SDS011;3928;42.626;23.382;2023-03-23T01:39:53;24.33;;;17.40;;
7767;SDS011;3928;42.626;23.382;2023-03-23T01:42:22;31.50;;;19.30;;
7767;SDS011;3928;42.626;23.382;2023-03-23T01:45:22;29.73;;;20.87;;
7767;SDS011;3928;42.626;23.382;2023-03-23T01:47:52;35.53;;;24.33;;
7767;SDS011;3928;42.626;23.382;2023-03-23T01:50:25;35.33;;;25.40;;
7767;SDS011;3928;42.626;23.382;2023-03-23T01:52:54;35.83;;;23.33;;
7767;SDS011;3928;42.626;23.382;2023-03-23T01:55:25;35.10;;;24.33;;
7767;SDS011;3928;42.626;23.382;2023-03-23T01:57:53;35.07;;;24.37;;
7767;SDS011;3928;42.626;23.382;2023-03-23T02:00:21;31.87;;;23.50;;
7767;SDS011;3928;42.626;23.382;2023-03-23T02:02:48;30.43;;;22.97;;
7767;SDS011;3928;42.626;23.382;2023-03-23T02:05:18;29.07;;;21.67;;
7767;SDS011;3928;42.626;23.382;2023-03-23T02:07:50;27.00;;;19.30;;
7767;SDS011;3928;42.626;23.382;2023-03-23T02:10:18;24.77;;;18.90;;
7767;SDS011;3928;42.626;23.382;2023-03-23T02:12:46;27.17;;;19.50;;
7767;SDS011;3928;42.626;23.382;2023-03-23T02:15:13;23.10;;;17.90;;
7767;SDS011;3928;42.626;23.382;2023-03-23T02:17:41;30.37;;;20.07;;
7767;SDS011;3928;42.626;23.382;2023-03-23T02:20:17;27.20;;;20.73;;
7767;SDS011;3928;42.626;23.382;2023-03-23T02:22:56;30.53;;;21.40;;
7767;SDS011;3928;42.626;23.382;2023-03-23T02:25:45;28.33;;;21.17;;
7767;SDS011;3928;42.626;23.382;2023-03-23T02:28:29;30.17;;;19.43;;
7767;SDS011;3928;42.626;23.382;2023-03-23T02:31:20;33.17;;;20.10;;
7767;SDS011;3928;42.626;23.382;2023-03-23T02:34:05;28.67;;;20.33;;
7767;SDS011;3928;42.626;23.382;2023-03-23T02:36:36;30.10;;;20.03;;
7767;SDS011;3928;42.626;23.382;2023-03-23T02:39:09;24.60;;;18.00;;
7767;SDS011;3928;42.626;23.382;2023-03-23T02:41:39;24.87;;;19.47;;
7767;SDS011;3928;42.626;23.382;2023-03-23T02:44:09;28.70;;;18.77;;
7767;SDS011;3928;42.626;23.382;2023-03-23T02:46:38;22.20;;;16.43;;
7767;SDS011;3928;42.626;23.382;2023-03-23T02:49:08;25.80;;;17.17;;
7767;SDS011;3928;42.626;23.382;2023-03-23T02:51:37;29.07;;;17.97;;
7767;SDS011;3928;42.626;23.382;2023-03-23T02:54:05;22.23;;;16.70;;
7767;SDS011;3928;42.626;23.382;2023-03-23T02:56:33;22.07;;;16.23;;
7767;SDS011;3928;42.626;23.382;2023-03-23T02:59:02;21.13;;;15.87;;
7767;SDS011;3928;42.626;23.382;2023-03-23T03:01:45;23.10;;;17.00;;
7767;SDS011;3928;42.626;23.382;2023-03-23T03:04:22;22.97;;;17.13;;
7767;SDS011;3928;42.626;23.382;2023-03-23T03:06:55;24.87;;;16.27;;
7767;SDS011;3928;42.626;23.382;2023-03-23T03:09:31;24.37;;;17.03;;
7767;SDS011;3928;42.626;23.382;2023-03-23T03:12:07;23.77;;;17.00;;
7767;SDS011;3928;42.626;23.382;2023-03-23T03:14:39;20.67;;;15.30;;
7767;SDS011;3928;42.626;23.382;2023-03-23T03:17:13;18.43;;;13.00;;
7767;SDS011;3928;42.626;23.382;2023-03-23T03:19:48;17.87;;;12.90;;
7767;SDS011;3928;42.626;23.382;2023-03-23T03:22:19;17.47;;;13.00;;
7767;SDS011;3928;42.626;23.382;2023-03-23T03:24:47;19.20;;;12.70;;
7767;SDS011;3928;42.626;23.382;2023-03-23T03:27:17;19.00;;;12.50;;
7767;SDS011;3928;42.626;23.382;2023-03-23T03:29:49;18.73;;;12.13;;
7767;SDS011;3928;42.626;23.382;2023-03-23T03:32:22;19.13;;;12.70;;
7767;SDS011;3928;42.626;23.382;2023-03-23T03:34:58;17.27;;;12.07;;
7767;SDS011;3928;42.626;23.382;2023-03-23T03:37:25;14.73;;;11.40;;
7767;SDS011;3928;42.626;23.382;2023-03-23T03:39:52;18.00;;;12.07;;
7767;SDS011;3928;42.626;23.382;2023-03-23T03:42:19;13.03;;;10.83;;
7767;SDS011;3928;42.626;23.382;2023-03-23T03:44:46;15.73;;;11.37;;
7767;SDS011;3928;42.626;23.382;2023-03-23T03:47:13;16.70;;;12.43;;
7767;SDS011;3928;42.626;23.382;2023-03-23T03:49:39;15.70;;;11.60;;
7767;SDS011;3928;42.626;23.382;2023-03-23T03:52:08;16.10;;;12.60;;
7767;SDS011;3928;42.626;23.382;2023-03-23T03:54:35;20.63;;;15.00;;
7767;SDS011;3928;42.626;23.382;2023-03-23T03:57:01;23.27;;;13.60;;
7767;SDS011;3928;42.626;23.382;2023-03-23T03:59:28;17.70;;;12.73;;
7767;SDS011;3928;42.626;23.382;2023-03-23T04:01:57;20.10;;;13.73;;
7767;SDS011;3928;42.626;23.382;2023-03-23T04:04:24;19.20;;;15.00;;
7767;SDS011;3928;42.626;23.382;2023-03-23T04:06:51;19.80;;;13.60;;
7767;SDS011;3928;42.626;23.382;2023-03-23T04:09:19;17.53;;;13.33;;
7767;SDS011;3928;42.626;23.382;2023-03-23T04:11:46;17.67;;;13.43;;
7767;SDS011;3928;42.626;23.382;2023-03-23T04:14:13;18.73;;;13.77;;
7767;SDS011;3928;42.626;23.382;2023-03-23T04:16:40;17.37;;;13.10;;
7767;SDS011;3928;42.626;23.382;2023-03-23T04:19:08;20.10;;;14.23;;
7767;SDS011;3928;42.626;23.382;2023-03-23T04:21:35;19.77;;;14.50;;
7767;SDS011;3928;42.626;23.382;2023-03-23T04:24:02;21.20;;;14.23;;
7767;SDS011;3928;42.626;23.382;2023-03-23T04:26:30;17.60;;;13.23;;
7767;SDS011;3928;42.626;23.382;2023-03-23T04:28:57;19.03;;;13.30;;
7767;SDS011;3928;42.626;23.382;2023-03-23T04:31:24;18.07;;;13.03;;
7767;SDS011;3928;42.626;23.382;2023-03-23T04:33:51;17.93;;;12.90;;
7767;SDS011;3928;42.626;23.382;2023-03-23T04:36:18;17.77;;;13.03;;
7767;SDS011;3928;42.626;23.382;2023-03-23T04:38:47;18.20;;;13.80;;
7767;SDS011;3928;42.626;23.382;2023-03-23T04:41:15;18.20;;;13.13;;
7767;SDS011;3928;42.626;23.382;2023-03-23T04:43:43;18.73;;;12.63;;
7767;SDS011;3928;42.626;23.382;2023-03-23T04:46:10;17.93;;;12.93;;
7767;SDS011;3928;42.626;23.382;2023-03-23T04:48:37;16.00;;;11.77;;
7767;SDS011;3928;42.626;23.382;2023-03-23T04:51:04;15.73;;;11.27;;
7767;SDS011;3928;42.626;23.382;2023-03-23T04:53:32;13.00;;;10.40;;
7767;SDS011;3928;42.626;23.382;2023-03-23T04:55:59;15.13;;;11.07;;
7767;SDS011;3928;42.626;23.382;2023-03-23T04:58:27;14.00;;;10.90;;
7767;SDS011;3928;42.626;23.382;2023-03-23T05:00:56;14.50;;;11.03;;
7767;SDS011;3928;42.626;23.382;2023-03-23T05:03:23;19.47;;;12.50;;
7767;SDS011;3928;42.626;23.382;2023-03-23T05:05:50;26.13;;;17.60;;
7767;SDS011;3928;42.626;23.382;2023-03-23T05:08:17;18.93;;;14.20;;
7767;SDS011;3928;42.626;23.382;2023-03-23T05:10:49;14.50;;;11.13;;
7767;SDS011;3928;42.626;23.382;2023-03-23T05:13:18;14.53;;;10.03;;
7767;SDS011;3928;42.626;23.382;2023-03-23T05:15:45;14.10;;;11.33;;
7767;SDS011;3928;42.626;23.382;2023-03-23T05:18:13;28.83;;;19.83;;
7767;SDS011;3928;42.626;23.382;2023-03-23T05:20:41;16.37;;;10.93;;
7767;SDS011;3928;42.626;23.382;2023-03-23T05:23:08;13.37;;;9.67;;
7767;SDS011;3928;42.626;23.382;2023-03-23T05:25:36;13.83;;;9.87;;
7767;SDS011;3928;42.626;23.382;2023-03-23T05:28:05;11.53;;;9.30;;
7767;SDS011;3928;42.626;23.382;2023-03-23T05:30:32;14.90;;;10.77;;
7767;SDS011;3928;42.626;23.382;2023-03-23T05:33:00;14.73;;;10.33;;
7767;SDS011;3928;42.626;23.382;2023-03-23T05:35:29;14.10;;;10.80;;
7767;SDS011;3928;42.626;23.382;2023-03-23T05:37:56;16.23;;;11.13;;
7767;SDS011;3928;42.626;23.382;2023-03-23T05:40:23;17.10;;;12.00;;
7767;SDS011;3928;42.626;23.382;2023-03-23T05:42:51;15.63;;;12.07;;
7767;SDS011;3928;42.626;23.382;2023-03-23T05:45:20;14.87;;;10.37;;
7767;SDS011;3928;42.626;23.382;2023-03-23T05:47:48;13.50;;;10.97;;
7767;SDS011;3928;42.626;23.382;2023-03-23T05:50:15;15.10;;;11.10;;
7767;SDS011;3928;42.626;23.382;2023-03-23T05:52:44;13.93;;;9.87;;
7767;SDS011;3928;42.626;23.382;2023-03-23T05:55:11;13.90;;;10.50;;
7767;SDS011;3928;42.626;23.382;2023-03-23T05:57:40;12.67;;;9.87;;
7767;SDS011;3928;42.626;23.382;2023-03-23T06:00:07;12.20;;;10.53;;
7767;SDS011;3928;42.626;23.382;2023-03-23T06:02:45;17.47;;;12.23;;
7767;SDS011;3928;42.626;23.382;2023-03-23T06:05:13;16.17;;;13.53;;
7767;SDS011;3928;42.626;23.382;2023-03-23T06:07:41;15.50;;;12.80;;
7767;SDS011;3928;42.626;23.382;2023-03-23T06:10:09;21.50;;;13.87;;
7767;SDS011;3928;42.626;23.382;2023-03-23T06:12:36;18.87;;;14.20;;
7767;SDS011;3928;42.626;23.382;2023-03-23T06:15:04;21.67;;;13.00;;
7767;SDS011;3928;42.626;23.382;2023-03-23T06:17:32;18.23;;;13.60;;
7767;SDS011;3928;42.626;23.382;2023-03-23T06:20:01;16.10;;;11.97;;
7767;SDS011;3928;42.626;23.382;2023-03-23T06:22:34;17.30;;;12.93;;
7767;SDS011;3928;42.626;23.382;2023-03-23T06:25:03;14.70;;;12.63;;
7767;SDS011;3928;42.626;23.382;2023-03-23T06:27:31;18.23;;;13.30;;
7767;SDS011;3928;42.626;23.382;2023-03-23T06:29:58;15.83;;;13.07;;
7767;SDS011;3928;42.626;23.382;2023-03-23T06:32:25;18.87;;;13.57;;
7767;SDS011;3928;42.626;23.382;2023-03-23T06:34:55;30.47;;;19.43;;
7767;SDS011;3928;42.626;23.382;2023-03-23T06:37:22;22.27;;;17.03;;
7767;SDS011;3928;42.626;23.382;2023-03-23T06:39:50;38.87;;;25.93;;
7767;SDS011;3928;42.626;23.382;2023-03-23T06:42:17;21.60;;;14.63;;
7767;SDS011;3928;42.626;23.382;2023-03-23T06:44:45;14.97;;;12.27;;
7767;SDS011;3928;42.626;23.382;2023-03-23T06:47:12;15.13;;;11.07;;
7767;SDS011;3928;42.626;23.382;2023-03-23T06:49:39;16.13;;;10.77;;
7767;SDS011;3928;42.626;23.382;2023-03-23T06:52:06;13.30;;;11.17;;
7767;SDS011;3928;42.626;23.382;2023-03-23T06:54:33;18.70;;;14.73;;
7767;SDS011;3928;42.626;23.382;2023-03-23T06:57:00;20.63;;;15.13;;
7767;SDS011;3928;42.626;23.382;2023-03-23T06:59:26;24.20;;;17.83;;
7767;SDS011;3928;42.626;23.382;2023-03-23T07:01:55;22.90;;;18.33;;
7767;SDS011;3928;42.626;23.382;2023-03-23T07:04:22;24.00;;;17.80;;
7767;SDS011;3928;42.626;23.382;2023-03-23T07:06:49;24.33;;;18.23;;
7767;SDS011;3928;42.626;23.382;2023-03-23T07:09:16;24.37;;;17.80;;
7767;SDS011;3928;42.626;23.382;2023-03-23T07:11:43;20.57;;;16.90;;
7767;SDS011;3928;42.626;23.382;2023-03-23T07:14:12;19.87;;;16.60;;
7767;SDS011;3928;42.626;23.382;2023-03-23T07:16:40;21.33;;;16.90;;
7767;SDS011;3928;42.626;23.382;2023-03-23T07:19:08;29.20;;;17.17;;
7767;SDS011;3928;42.626;23.382;2023-03-23T07:21:35;24.00;;;17.43;;
7767;SDS011;3928;42.626;23.382;2023-03-23T07:24:02;26.13;;;17.63;;
7767;SDS011;3928;42.626;23.382;2023-03-23T07:26:47;24.90;;;18.30;;
7767;SDS011;3928;42.626;23.382;2023-03-23T07:29:14;26.53;;;18.27;;
7767;SDS011;3928;42.626;23.382;2023-03-23T07:31:41;26.50;;;20.50;;
7767;SDS011;3928;42.626;23.382;2023-03-23T07:34:09;30.35;;;21.60;;
7767;SDS011;3928;42.626;23.382;2023-03-23T07:36:36;31.13;;;20.90;;
7767;SDS011;3928;42.626;23.382;2023-03-23T07:39:03;48.00;;;34.17;;
7767;SDS011;3928;42.626;23.382;2023-03-23T07:41:30;26.88;;;21.30;;
7767;SDS011;3928;42.626;23.382;2023-03-23T07:43:57;26.27;;;19.88;;
7767;SDS011;3928;42.626;23.382;2023-03-23T07:46:24;24.67;;;19.42;;
7767;SDS011;3928;42.626;23.382;2023-03-23T07:48:51;41.25;;;32.25;;
7767;SDS011;3928;42.626;23.382;2023-03-23T07:51:19;23.70;;;19.08;;
7767;SDS011;3928;42.626;23.382;2023-03-23T07:53:46;27.60;;;19.88;;
7767;SDS011;3928;42.626;23.382;2023-03-23T07:56:13;22.67;;;18.33;;
7767;SDS011;3928;42.626;23.382;2023-03-23T07:58:43;26.60;;;18.60;;
7767;SDS011;3928;42.626;23.382;2023-03-23T08:01:10;23.00;;;16.58;;
7767;SDS011;3928;42.626;23.382;2023-03-23T08:03:37;22.40;;;18.02;;
7767;SDS011;3928;42.626;23.382;2023-03-23T08:06:05;24.88;;;17.88;;
7767;SDS011;3928;42.626;23.382;2023-03-23T08:08:33;22.20;;;17.58;;
7767;SDS011;3928;42.626;23.382;2023-03-23T08:11:00;26.85;;;17.70;;
7767;SDS011;3928;42.626;23.382;2023-03-23T08:13:27;24.00;;;19.02;;
7767;SDS011;3928;42.626;23.382;2023-03-23T08:15:54;21.13;;;17.10;;
7767;SDS011;3928;42.626;23.382;2023-03-23T08:18:21;20.77;;;16.50;;
7767;SDS011;3928;42.626;23.382;2023-03-23T08:20:48;20.80;;;16.90;;
7767;SDS011;3928;42.626;23.382;2023-03-23T08:23:16;20.33;;;16.27;;
7767;SDS011;3928;42.626;23.382;2023-03-23T08:25:44;26.63;;;14.65;;
7767;SDS011;3928;42.626;23.382;2023-03-23T08:28:11;14.68;;;12.65;;
7767;SDS011;3928;42.626;23.382;2023-03-23T08:30:39;19.65;;;12.48;;
7767;SDS011;3928;42.626;23.382;2023-03-23T08:33:06;17.85;;;13.75;;
7767;SDS011;3928;42.626;23.382;2023-03-23T08:35:35;18.05;;;14.48;;
7767;SDS011;3928;42.626;23.382;2023-03-23T08:38:02;15.00;;;12.88;;
7767;SDS011;3928;42.626;23.382;2023-03-23T08:40:29;17.52;;;13.13;;
7767;SDS011;3928;42.626;23.382;2023-03-23T08:42:58;14.95;;;12.63;;
7767;SDS011;3928;42.626;23.382;2023-03-23T08:45:25;16.20;;;12.20;;
7767;SDS011;3928;42.626;23.382;2023-03-23T08:47:53;14.45;;;12.18;;
7767;SDS011;3928;42.626;23.382;2023-03-23T08:50:22;15.00;;;12.63;;
7767;SDS011;3928;42.626;23.382;2023-03-23T08:52:49;14.38;;;11.88;;
7767;SDS011;3928;42.626;23.382;2023-03-23T08:55:16;19.15;;;10.15;;
7767;SDS011;3928;42.626;23.382;2023-03-23T08:57:43;11.32;;;9.27;;
7767;SDS011;3928;42.626;23.382;2023-03-23T09:00:14;9.85;;;8.25;;
7767;SDS011;3928;42.626;23.382;2023-03-23T09:02:46;11.88;;;7.57;;
7767;SDS011;3928;42.626;23.382;2023-03-23T09:05:15;12.02;;;7.78;;
7767;SDS011;3928;42.626;23.382;2023-03-23T09:07:44;12.95;;;9.02;;
7767;SDS011;3928;42.626;23.382;2023-03-23T09:10:13;12.40;;;9.45;;
7767;SDS011;3928;42.626;23.382;2023-03-23T09:12:41;14.85;;;9.85;;
7767;SDS011;3928;42.626;23.382;2023-03-23T09:15:10;11.48;;;7.82;;
7767;SDS011;3928;42.626;23.382;2023-03-23T09:17:41;9.50;;;7.30;;
7767;SDS011;3928;42.626;23.382;2023-03-23T09:20:09;7.40;;;6.55;;
7767;SDS011;3928;42.626;23.382;2023-03-23T09:22:38;7.93;;;7.13;;
7767;SDS011;3928;42.626;23.382;2023-03-23T09:25:06;8.43;;;6.68;;
7767;SDS011;3928;42.626;23.382;2023-03-23T09:27:35;10.50;;;7.63;;
7767;SDS011;3928;42.626;23.382;2023-03-23T09:30:04;7.95;;;7.10;;
7767;SDS011;3928;42.626;23.382;2023-03-23T09:32:33;10.90;;;7.93;;
7767;SDS011;3928;42.626;23.382;2023-03-23T09:35:01;9.40;;;7.80;;
7767;SDS011;3928;42.626;23.382;2023-03-23T09:37:30;8.32;;;6.93;;
7767;SDS011;3928;42.626;23.382;2023-03-23T09:39:57;9.07;;;7.50;;
7767;SDS011;3928;42.626;23.382;2023-03-23T09:42:31;8.70;;;7.38;;
7767;SDS011;3928;42.626;23.382;2023-03-23T09:45:09;7.40;;;6.60;;
7767;SDS011;3928;42.626;23.382;2023-03-23T09:47:46;8.25;;;6.60;;
7767;SDS011;3928;42.626;23.382;2023-03-23T09:50:27;8.98;;;7.57;;
7767;SDS011;3928;42.626;23.382;2023-03-23T09:52:58;9.93;;;8.15;;
7767;SDS011;3928;42.626;23.382;2023-03-23T09:55:31;8.30;;;7.10;;
7767;SDS011;3928;42.626;23.382;2023-03-23T09:57:59;9.23;;;7.45;;
7767;SDS011;3928;42.626;23.382;2023-03-23T10:00:35;9.05;;;6.75;;
7767;SDS011;3928;42.626;23.382;2023-03-23T10:03:06;8.30;;;7.22;;
7767;SDS011;3928;42.626;23.382;2023-03-23T10:05:41;8.75;;;7.15;;
7767;SDS011;3928;42.626;23.382;2023-03-23T10:08:11;7.72;;;6.93;;
7767;SDS011;3928;42.626;23.382;2023-03-23T10:10:44;8.00;;;7.20;;
7767;SDS011;3928;42.626;23.382;2023-03-23T10:13:18;8.27;;;6.63;;
7767;SDS011;3928;42.626;23.382;2023-03-23T10:15:54;8.60;;;7.28;;
7767;SDS011;3928;42.626;23.382;2023-03-23T10:18:25;8.40;;;7.43;;
7767;SDS011;3928;42.626;23.382;2023-03-23T10:20:56;7.47;;;6.45;;
7767;SDS011;3928;42.626;23.382;2023-03-23T10:23:34;7.65;;;6.00;;
7767;SDS011;3928;42.626;23.382;2023-03-23T10:26:10;9.35;;;7.20;;
7767;SDS011;3928;42.626;23.382;2023-03-23T10:28:45;7.57;;;6.65;;
7767;SDS011;3928;42.626;23.382;2023-03-23T10:31:19;8.25;;;6.65;;
7767;SDS011;3928;42.626;23.382;2023-03-23T10:33:52;9.23;;;6.70;;
7767;SDS011;3928;42.626;23.382;2023-03-23T10:36:23;7.28;;;6.57;;
7767;SDS011;3928;42.626;23.382;2023-03-23T10:38:56;6.78;;;6.07;;
7767;SDS011;3928;42.626;23.382;2023-03-23T10:41:33;7.10;;;6.40;;
7767;SDS011;3928;42.626;23.382;2023-03-23T10:43:59;7.93;;;6.53;;
7767;SDS011;3928;42.626;23.382;2023-03-23T10:46:33;8.55;;;6.38;;
7767;SDS011;3928;42.626;23.382;2023-03-23T10:49:09;11.02;;;8.02;;
7767;SDS011;3928;42.626;23.382;2023-03-23T10:51:40;6.60;;;6.00;;
7767;SDS011;3928;42.626;23.382;2023-03-23T10:54:11;7.32;;;6.63;;
7767;SDS011;3928;42.626;23.382;2023-03-23T10:56:38;9.32;;;6.88;;
7767;SDS011;3928;42.626;23.382;2023-03-23T10:59:13;7.88;;;6.95;;
7767;SDS011;3928;42.626;23.382;2023-03-23T11:01:43;9.13;;;7.47;;
7767;SDS011;3928;42.626;23.382;2023-03-23T11:04:15;36.38;;;28.63;;
7767;SDS011;3928;42.626;23.382;2023-03-23T11:06:44;13.48;;;10.88;;
7767;SDS011;3928;42.626;23.382;2023-03-23T11:09:14;7.93;;;7.10;;
7767;SDS011;3928;42.626;23.382;2023-03-23T11:11:43;8.98;;;7.53;;
7767;SDS011;3928;42.626;23.382;2023-03-23T11:14:16;10.43;;;6.90;;
7767;SDS011;3928;42.626;23.382;2023-03-23T11:16:45;7.30;;;6.60;;
7767;SDS011;3928;42.626;23.382;2023-03-23T11:19:22;9.85;;;6.75;;
7767;SDS011;3928;42.626;23.382;2023-03-23T11:21:51;7.78;;;6.47;;
7767;SDS011;3928;42.626;23.382;2023-03-23T11:24:21;8.65;;;6.43;;
7767;SDS011;3928;42.626;23.382;2023-03-23T11:26:49;6.63;;;6.03;;
7767;SDS011;3928;42.626;23.382;2023-03-23T11:29:18;7.80;;;6.47;;
7767;SDS011;3928;42.626;23.382;2023-03-23T11:31:48;7.28;;;6.63;;
7767;SDS011;3928;42.626;23.382;2023-03-23T11:34:19;7.63;;;6.82;;
7767;SDS011;3928;42.626;23.382;2023-03-23T11:36:50;7.30;;;6.63;;
7767;SDS011;3928;42.626;23.382;2023-03-23T11:39:21;7.50;;;6.65;;
7767;SDS011;3928;42.626;23.382;2023-03-23T11:41:49;7.75;;;6.45;;
7767;SDS011;3928;42.626;23.382;2023-03-23T11:44:16;10.30;;;7.15;;
7767;SDS011;3928;42.626;23.382;2023-03-23T11:46:48;7.85;;;7.05;;
7767;SDS011;3928;42.626;23.382;2023-03-23T11:49:35;9.90;;;6.32;;
7767;SDS011;3928;42.626;23.382;2023-03-23T11:52:11;10.95;;;6.63;;
7767;SDS011;3928;42.626;23.382;2023-03-23T11:54:46;9.32;;;7.20;;
7767;SDS011;3928;42.626;23.382;2023-03-23T11:57:20;24.05;;;18.33;;
7767;SDS011;3928;42.626;23.382;2023-03-23T11:59:47;33.33;;;24.33;;
7767;SDS011;3928;42.626;23.382;2023-03-23T12:02:24;9.98;;;7.82;;
7767;SDS011;3928;42.626;23.382;2023-03-23T12:05:11;6.32;;;5.72;;
7767;SDS011;3928;42.626;23.382;2023-03-23T12:07:58;7.20;;;6.20;;
7767;SDS011;3928;42.626;23.382;2023-03-23T12:10:38;8.98;;;6.40;;
7767;SDS011;3928;42.626;23.382;2023-03-23T12:13:19;8.23;;;6.60;;
7767;SDS011;3928;42.626;23.382;2023-03-23T12:15:57;13.27;;;6.20;;
7767;SDS011;3928;42.626;23.382;2023-03-23T12:18:32;8.60;;;5.78;;
7767;SDS011;3928;42.626;23.382;2023-03-23T12:21:08;7.13;;;5.78;;
7767;SDS011;3928;42.626;23.382;2023-03-23T12:23:43;9.02;;;6.15;;
7767;SDS011;3928;42.626;23.382;2023-03-23T12:26:17;6.45;;;5.85;;
7767;SDS011;3928;42.626;23.382;2023-03-23T12:28:59;9.00;;;6.00;;
7767;SDS011;3928;42.626;23.382;2023-03-23T12:31:42;8.52;;;5.95;;
7767;SDS011;3928;42.626;23.382;2023-03-23T12:34:26;10.32;;;9.10;;
7767;SDS011;3928;42.626;23.382;2023-03-23T12:37:16;12.88;;;8.55;;
7767;SDS011;3928;42.626;23.382;2023-03-23T12:40:00;6.45;;;5.85;;
7767;SDS011;3928;42.626;23.382;2023-03-23T12:42:40;7.13;;;6.53;;
7767;SDS011;3928;42.626;23.382;2023-03-23T12:45:17;7.25;;;6.40;;
7767;SDS011;3928;42.626;23.382;2023-03-23T12:47:50;7.10;;;6.40;;
7767;SDS011;3928;42.626;23.382;2023-03-23T12:50:24;6.80;;;6.07;;
7767;SDS011;3928;42.626;23.382;2023-03-23T12:52:59;7.07;;;5.80;;
7767;SDS011;3928;42.626;23.382;2023-03-23T12:55:32;7.15;;;6.13;;
7767;SDS011;3928;42.626;23.382;2023-03-23T12:58:04;6.82;;;5.75;;
7767;SDS011;3928;42.626;23.382;2023-03-23T13:00:36;6.75;;;5.72;;
7767;SDS011;3928;42.626;23.382;2023-03-23T13:03:17;6.65;;;5.45;;
7767;SDS011;3928;42.626;23.382;2023-03-23T13:05:49;7.65;;;5.40;;
7767;SDS011;3928;42.626;23.382;2023-03-23T13:08:22;7.47;;;6.07;;
7767;SDS011;3928;42.626;23.382;2023-03-23T13:10:54;6.60;;;5.53;;
7767;SDS011;3928;42.626;23.382;2023-03-23T13:13:39;7.45;;;6.30;;
7767;SDS011;3928;42.626;23.382;2023-03-23T13:16:11;7.50;;;5.70;;
7767;SDS011;3928;42.626;23.382;2023-03-23T13:18:47;11.57;;;6.28;;
7767;SDS011;3928;42.626;23.382;2023-03-23T13:21:21;7.32;;;6.50;;
7767;SDS011;3928;42.626;23.382;2023-03-23T13:23:55;5.93;;;5.43;;
7767;SDS011;3928;42.626;23.382;2023-03-23T13:26:24;8.60;;;5.82;;
7767;SDS011;3928;42.626;23.382;2023-03-23T13:28:55;11.52;;;6.25;;
7767;SDS011;3928;42.626;23.382;2023-03-23T13:31:24;9.43;;;6.68;;
7767;SDS011;3928;42.626;23.382;2023-03-23T13:33:58;8.80;;;6.07;;
7767;SDS011;3928;42.626;23.382;2023-03-23T13:36:28;7.22;;;6.03;;
7767;SDS011;3928;42.626;23.382;2023-03-23T13:38:59;8.02;;;5.80;;
7767;SDS011;3928;42.626;23.382;2023-03-23T13:41:29;9.52;;;6.07;;
7767;SDS011;3928;42.626;23.382;2023-03-23T13:46:53;8.07;;;5.38;;
7767;SDS011;3928;42.626;23.382;2023-03-23T13:49:21;11.52;;;5.90;;
7767;SDS011;3928;42.626;23.382;2023-03-23T13:51:58;9.60;;;5.53;;
7767;SDS011;3928;42.626;23.382;2023-03-23T13:54:38;6.50;;;5.63;;
7767;SDS011;3928;42.626;23.382;2023-03-23T13:57:20;6.57;;;5.97;;
7767;SDS011;3928;42.626;23.382;2023-03-23T13:59:55;8.23;;;6.13;;
7767;SDS011;3928;42.626;23.382;2023-03-23T14:02:31;6.45;;;5.80;;
7767;SDS011;3928;42.626;23.382;2023-03-23T14:05:09;9.68;;;6.22;;
7767;SDS011;3928;42.626;23.382;2023-03-23T14:07:51;9.90;;;6.55;;
7767;SDS011;3928;42.626;23.382;2023-03-23T14:10:30;9.27;;;6.22;;
7767;SDS011;3928;42.626;23.382;2023-03-23T14:12:59;13.77;;;11.80;;
7767;SDS011;3928;42.626;23.382;2023-03-23T14:15:28;8.80;;;6.97;;
7767;SDS011;3928;42.626;23.382;2023-03-23T14:17:56;9.68;;;6.30;;
7767;SDS011;3928;42.626;23.382;2023-03-23T14:20:25;7.57;;;5.78;;
7767;SDS011;3928;42.626;23.382;2023-03-23T14:22:57;11.05;;;5.70;;
7767;SDS011;3928;42.626;23.382;2023-03-23T14:25:27;8.02;;;5.35;;
7767;SDS011;3928;42.626;23.382;2023-03-23T14:27:57;7.97;;;5.68;;
7767;SDS011;3928;42.626;23.382;2023-03-23T14:30:25;6.18;;;5.57;;
7767;SDS011;3928;42.626;23.382;2023-03-23T14:32:53;6.53;;;5.47;;
7767;SDS011;3928;42.626;23.382;2023-03-23T14:35:29;8.35;;;5.75;;
7767;SDS011;3928;42.626;23.382;2023-03-23T14:37:57;8.65;;;6.32;;
7767;SDS011;3928;42.626;23.382;2023-03-23T14:40:27;8.65;;;6.30;;
7767;SDS011;3928;42.626;23.382;2023-03-23T14:42:55;7.30;;;6.13;;
7767;SDS011;3928;42.626;23.382;2023-03-23T14:45:23;6.60;;;5.72;;
7767;SDS011;3928;42.626;23.382;2023-03-23T14:47:51;7.13;;;6.15;;
7767;SDS011;3928;42.626;23.382;2023-03-23T14:50:23;10.10;;;6.03;;
7767;SDS011;3928;42.626;23.382;2023-03-23T14:52:55;8.35;;;7.00;;
7767;SDS011;3928;42.626;23.382;2023-03-23T14:55:24;13.90;;;6.72;;
7767;SDS011;3928;42.626;23.382;2023-03-23T14:57:55;7.90;;;5.80;;
7767;SDS011;3928;42.626;23.382;2023-03-23T15:00:22;11.75;;;6.55;;
7767;SDS011;3928;42.626;23.382;2023-03-23T15:02:54;45.88;;;33.67;;
7767;SDS011;3928;42.626;23.382;2023-03-23T15:05:25;21.42;;;15.32;;